Ilfracombe, United Kingdom
Current Conditions -  °F | °C
As of 1:50 PM on Friday 28 Nov 2014 (Local Time) from EGDX Reporting Station
Haze Haze  
Wind Chill: 52°   Ceiling: 1200
Heat Index: 52°   Visibility: 4mi
Dew Point: 48°   Wind: 18mph
Humidity: 88%   Direction: 70°ENE
Pressure: 29.53"   Gusts: NA
Location:  51.21°N, 4.11°W
Report Text: EGDX 281350Z 07016KT 7000 HZ BKN012 11/09 Q1000 GRN
Loading
Personal Weather Stations






























Interactive Weather Map New forecast layout! Learn more

10-Day Weather Forecast

Advertisements
Track Severe Weather on mobile